sensor_id;sensor_type;location;lat;lon;timestamp;temperature;humidity
41922;DHT22;27609;51.002;5.354;2023-07-24T00:00:48;17.50;99.90
41922;DHT22;27609;51.002;5.354;2023-07-24T00:03:13;17.50;99.90
41922;DHT22;27609;51.002;5.354;2023-07-24T00:05:39;17.60;99.90
41922;DHT22;27609;51.002;5.354;2023-07-24T00:08:05;17.50;99.90
41922;DHT22;27609;51.002;5.354;2023-07-24T00:10:32;17.50;99.90
41922;DHT22;27609;51.002;5.354;2023-07-24T00:12:57;17.50;99.90
41922;DHT22;27609;51.002;5.354;2023-07-24T00:15:23;17.50;99.90
41922;DHT22;27609;51.002;5.354;2023-07-24T00:17:49;17.50;99.90
41922;DHT22;27609;51.002;5.354;2023-07-24T00:20:14;17.50;99.90
41922;DHT22;27609;51.002;5.354;2023-07-24T00:22:40;17.50;99.90
41922;DHT22;27609;51.002;5.354;2023-07-24T00:25:06;17.60;99.90
41922;DHT22;27609;51.002;5.354;2023-07-24T00:27:32;17.50;99.90
41922;DHT22;27609;51.002;5.354;2023-07-24T00:29:57;17.60;99.90
41922;DHT22;27609;51.002;5.354;2023-07-24T00:32:23;17.60;99.90
41922;DHT22;27609;51.002;5.354;2023-07-24T00:34:49;17.60;99.90
41922;DHT22;27609;51.002;5.354;2023-07-24T00:37:14;17.60;99.90
41922;DHT22;27609;51.002;5.354;2023-07-24T00:39:40;17.60;99.90
41922;DHT22;27609;51.002;5.354;2023-07-24T00:42:06;17.70;99.90
41922;DHT22;27609;51.002;5.354;2023-07-24T00:44:31;17.70;99.90
41922;DHT22;27609;51.002;5.354;2023-07-24T00:46:57;17.70;99.90
41922;DHT22;27609;51.002;5.354;2023-07-24T00:49:23;17.70;99.90
41922;DHT22;27609;51.002;5.354;2023-07-24T00:51:49;17.80;99.90
41922;DHT22;27609;51.002;5.354;2023-07-24T00:54:16;17.80;99.90
41922;DHT22;27609;51.002;5.354;2023-07-24T00:56:43;17.90;99.90
41922;DHT22;27609;51.002;5.354;2023-07-24T00:59:10;17.90;99.90
41922;DHT22;27609;51.002;5.354;2023-07-24T01:01:37;17.90;99.90
41922;DHT22;27609;51.002;5.354;2023-07-24T01:04:03;17.90;99.90
41922;DHT22;27609;51.002;5.354;2023-07-24T01:06:29;17.90;99.90
41922;DHT22;27609;51.002;5.354;2023-07-24T01:08:55;17.90;99.90
41922;DHT22;27609;51.002;5.354;2023-07-24T01:14:36;17.90;99.90
41922;DHT22;27609;51.002;5.354;2023-07-24T01:17:07;17.90;99.90
41922;DHT22;27609;51.002;5.354;2023-07-24T01:19:40;17.90;99.90
41922;DHT22;27609;51.002;5.354;2023-07-24T01:25:16;17.90;99.90
41922;DHT22;27609;51.002;5.354;2023-07-24T01:27:45;18.00;99.90
41922;DHT22;27609;51.002;5.354;2023-07-24T01:30:13;17.90;99.90
41922;DHT22;27609;51.002;5.354;2023-07-24T01:32:39;18.00;99.90
41922;DHT22;27609;51.002;5.354;2023-07-24T01:35:05;17.90;99.90
41922;DHT22;27609;51.002;5.354;2023-07-24T01:37:34;17.80;99.90
41922;DHT22;27609;51.002;5.354;2023-07-24T01:40:00;17.80;99.90
41922;DHT22;27609;51.002;5.354;2023-07-24T01:42:26;17.80;99.90
41922;DHT22;27609;51.002;5.354;2023-07-24T01:44:53;17.90;99.90
41922;DHT22;27609;51.002;5.354;2023-07-24T01:47:19;17.80;99.90
41922;DHT22;27609;51.002;5.354;2023-07-24T01:49:45;17.90;99.90
41922;DHT22;27609;51.002;5.354;2023-07-24T01:52:10;17.80;99.90
41922;DHT22;27609;51.002;5.354;2023-07-24T01:54:36;17.90;99.90
41922;DHT22;27609;51.002;5.354;2023-07-24T01:57:02;17.90;99.90
41922;DHT22;27609;51.002;5.354;2023-07-24T01:59:27;17.90;99.90
41922;DHT22;27609;51.002;5.354;2023-07-24T02:01:53;17.90;99.90
41922;DHT22;27609;51.002;5.354;2023-07-24T02:04:18;17.90;99.90
41922;DHT22;27609;51.002;5.354;2023-07-24T02:06:48;17.80;99.90
41922;DHT22;27609;51.002;5.354;2023-07-24T02:09:14;17.80;99.90
41922;DHT22;27609;51.002;5.354;2023-07-24T02:11:40;17.80;99.90
41922;DHT22;27609;51.002;5.354;2023-07-24T02:14:05;17.80;99.90
41922;DHT22;27609;51.002;5.354;2023-07-24T02:16:31;17.80;99.90
41922;DHT22;27609;51.002;5.354;2023-07-24T02:18:57;17.70;99.90
41922;DHT22;27609;51.002;5.354;2023-07-24T02:21:22;17.70;99.90
41922;DHT22;27609;51.002;5.354;2023-07-24T02:23:48;17.70;99.90
41922;DHT22;27609;51.002;5.354;2023-07-24T02:26:14;17.70;99.90
41922;DHT22;27609;51.002;5.354;2023-07-24T02:28:39;17.70;99.90
41922;DHT22;27609;51.002;5.354;2023-07-24T02:31:05;17.70;99.90
41922;DHT22;27609;51.002;5.354;2023-07-24T02:33:31;17.60;99.90
41922;DHT22;27609;51.002;5.354;2023-07-24T02:35:56;17.60;99.90
41922;DHT22;27609;51.002;5.354;2023-07-24T02:38:22;17.60;99.90
41922;DHT22;27609;51.002;5.354;2023-07-24T02:40:47;17.60;99.90
41922;DHT22;27609;51.002;5.354;2023-07-24T02:43:13;17.60;99.90
41922;DHT22;27609;51.002;5.354;2023-07-24T02:45:39;17.60;99.90
41922;DHT22;27609;51.002;5.354;2023-07-24T02:48:05;17.60;99.90
41922;DHT22;27609;51.002;5.354;2023-07-24T02:50:31;17.60;99.90
41922;DHT22;27609;51.002;5.354;2023-07-24T02:52:57;17.60;99.90
41922;DHT22;27609;51.002;5.354;2023-07-24T02:55:23;17.60;99.90
41922;DHT22;27609;51.002;5.354;2023-07-24T02:57:49;17.60;99.90
41922;DHT22;27609;51.002;5.354;2023-07-24T03:00:15;17.60;99.90
41922;DHT22;27609;51.002;5.354;2023-07-24T03:02:40;17.50;99.90
41922;DHT22;27609;51.002;5.354;2023-07-24T03:05:06;17.50;99.90
41922;DHT22;27609;51.002;5.354;2023-07-24T03:07:32;17.50;99.90
41922;DHT22;27609;51.002;5.354;2023-07-24T03:09:58;17.50;99.90
41922;DHT22;27609;51.002;5.354;2023-07-24T03:12:24;17.50;99.90
41922;DHT22;27609;51.002;5.354;2023-07-24T03:14:50;17.50;99.90
41922;DHT22;27609;51.002;5.354;2023-07-24T03:17:15;17.50;99.90
41922;DHT22;27609;51.002;5.354;2023-07-24T03:19:41;17.50;99.90
41922;DHT22;27609;51.002;5.354;2023-07-24T03:22:07;17.50;99.90
41922;DHT22;27609;51.002;5.354;2023-07-24T03:24:34;17.50;99.90
41922;DHT22;27609;51.002;5.354;2023-07-24T03:27:00;17.50;99.90
41922;DHT22;27609;51.002;5.354;2023-07-24T03:29:26;17.50;99.90
41922;DHT22;27609;51.002;5.354;2023-07-24T03:31:52;17.50;99.90
41922;DHT22;27609;51.002;5.354;2023-07-24T03:34:18;17.40;99.90
41922;DHT22;27609;51.002;5.354;2023-07-24T03:36:44;17.40;99.90
41922;DHT22;27609;51.002;5.354;2023-07-24T03:39:10;17.40;99.90
41922;DHT22;27609;51.002;5.354;2023-07-24T03:41:37;17.40;99.90
41922;DHT22;27609;51.002;5.354;2023-07-24T03:44:03;17.40;99.90
41922;DHT22;27609;51.002;5.354;2023-07-24T03:46:28;17.40;99.90
41922;DHT22;27609;51.002;5.354;2023-07-24T03:48:54;17.40;99.90
41922;DHT22;27609;51.002;5.354;2023-07-24T03:51:20;17.40;99.90
41922;DHT22;27609;51.002;5.354;2023-07-24T03:53:46;17.40;99.90
41922;DHT22;27609;51.002;5.354;2023-07-24T03:56:12;17.40;99.90
41922;DHT22;27609;51.002;5.354;2023-07-24T03:58:38;17.40;99.90
41922;DHT22;27609;51.002;5.354;2023-07-24T04:01:05;17.40;99.90
41922;DHT22;27609;51.002;5.354;2023-07-24T04:03:31;17.40;99.90
41922;DHT22;27609;51.002;5.354;2023-07-24T04:05:56;17.40;99.90
41922;DHT22;27609;51.002;5.354;2023-07-24T04:08:22;17.40;99.90
41922;DHT22;27609;51.002;5.354;2023-07-24T04:10:48;17.40;99.90
41922;DHT22;27609;51.002;5.354;2023-07-24T04:13:13;17.40;99.90
41922;DHT22;27609;51.002;5.354;2023-07-24T04:15:39;17.40;99.90
41922;DHT22;27609;51.002;5.354;2023-07-24T04:18:05;17.40;99.90
41922;DHT22;27609;51.002;5.354;2023-07-24T04:20:31;17.40;99.90
41922;DHT22;27609;51.002;5.354;2023-07-24T04:22:56;17.40;99.90
41922;DHT22;27609;51.002;5.354;2023-07-24T04:25:22;17.40;99.90
41922;DHT22;27609;51.002;5.354;2023-07-24T04:27:48;17.40;99.90
41922;DHT22;27609;51.002;5.354;2023-07-24T04:30:13;17.40;99.90
41922;DHT22;27609;51.002;5.354;2023-07-24T04:32:39;17.40;99.90
41922;DHT22;27609;51.002;5.354;2023-07-24T04:35:05;17.50;99.90
41922;DHT22;27609;51.002;5.354;2023-07-24T04:37:31;17.60;99.90
41922;DHT22;27609;51.002;5.354;2023-07-24T04:39:57;17.60;99.90
41922;DHT22;27609;51.002;5.354;2023-07-24T04:42:22;17.50;99.90
41922;DHT22;27609;51.002;5.354;2023-07-24T04:44:48;17.50;99.90
41922;DHT22;27609;51.002;5.354;2023-07-24T04:47:15;17.30;99.90
41922;DHT22;27609;51.002;5.354;2023-07-24T04:49:41;17.40;99.90
41922;DHT22;27609;51.002;5.354;2023-07-24T04:52:07;17.40;99.90
41922;DHT22;27609;51.002;5.354;2023-07-24T04:54:32;17.60;99.90
41922;DHT22;27609;51.002;5.354;2023-07-24T04:56:58;17.60;99.90
41922;DHT22;27609;51.002;5.354;2023-07-24T04:59:23;17.60;99.90
41922;DHT22;27609;51.002;5.354;2023-07-24T05:01:49;17.60;99.90
41922;DHT22;27609;51.002;5.354;2023-07-24T05:04:15;17.70;99.90
41922;DHT22;27609;51.002;5.354;2023-07-24T05:06:41;17.80;99.90
41922;DHT22;27609;51.002;5.354;2023-07-24T05:09:06;17.90;99.90
41922;DHT22;27609;51.002;5.354;2023-07-24T05:11:32;18.10;99.90
41922;DHT22;27609;51.002;5.354;2023-07-24T05:13:58;18.20;99.90
41922;DHT22;27609;51.002;5.354;2023-07-24T05:16:23;18.20;99.90
41922;DHT22;27609;51.002;5.354;2023-07-24T05:18:49;18.30;99.90
41922;DHT22;27609;51.002;5.354;2023-07-24T05:21:15;18.30;99.90
41922;DHT22;27609;51.002;5.354;2023-07-24T05:23:40;18.40;99.90
41922;DHT22;27609;51.002;5.354;2023-07-24T05:26:06;18.50;99.90
41922;DHT22;27609;51.002;5.354;2023-07-24T05:28:32;18.40;99.90
41922;DHT22;27609;51.002;5.354;2023-07-24T05:31:05;18.00;99.90
41922;DHT22;27609;51.002;5.354;2023-07-24T05:33:31;18.10;99.90
41922;DHT22;27609;51.002;5.354;2023-07-24T05:36:01;17.80;99.90
41922;DHT22;27609;51.002;5.354;2023-07-24T05:38:27;18.00;99.90
41922;DHT22;27609;51.002;5.354;2023-07-24T05:41:00;18.00;99.90
41922;DHT22;27609;51.002;5.354;2023-07-24T05:43:27;18.20;99.90
41922;DHT22;27609;51.002;5.354;2023-07-24T05:45:54;18.20;99.90
41922;DHT22;27609;51.002;5.354;2023-07-24T05:48:20;18.40;99.90
41922;DHT22;27609;51.002;5.354;2023-07-24T05:50:45;18.40;99.90
41922;DHT22;27609;51.002;5.354;2023-07-24T05:53:11;18.30;99.90
41922;DHT22;27609;51.002;5.354;2023-07-24T05:55:37;18.40;99.90
41922;DHT22;27609;51.002;5.354;2023-07-24T05:58:03;18.60;99.90
41922;DHT22;27609;51.002;5.354;2023-07-24T06:00:28;18.70;99.90
41922;DHT22;27609;51.002;5.354;2023-07-24T06:02:54;18.70;99.90
41922;DHT22;27609;51.002;5.354;2023-07-24T06:05:20;18.90;99.90
41922;DHT22;27609;51.002;5.354;2023-07-24T06:07:46;19.00;99.90
41922;DHT22;27609;51.002;5.354;2023-07-24T06:10:12;18.70;99.90
41922;DHT22;27609;51.002;5.354;2023-07-24T06:12:38;18.60;99.90
41922;DHT22;27609;51.002;5.354;2023-07-24T06:15:04;18.60;99.90
41922;DHT22;27609;51.002;5.354;2023-07-24T06:17:30;18.50;99.90
41922;DHT22;27609;51.002;5.354;2023-07-24T06:19:56;18.40;99.90
41922;DHT22;27609;51.002;5.354;2023-07-24T06:22:22;18.30;99.90
41922;DHT22;27609;51.002;5.354;2023-07-24T06:24:48;18.20;99.90
41922;DHT22;27609;51.002;5.354;2023-07-24T06:27:14;18.30;99.90
41922;DHT22;27609;51.002;5.354;2023-07-24T06:29:40;18.30;99.90
41922;DHT22;27609;51.002;5.354;2023-07-24T06:32:06;18.20;99.90
41922;DHT22;27609;51.002;5.354;2023-07-24T06:34:32;18.30;99.90
41922;DHT22;27609;51.002;5.354;2023-07-24T06:36:57;18.40;99.90
41922;DHT22;27609;51.002;5.354;2023-07-24T06:39:23;18.40;99.90
41922;DHT22;27609;51.002;5.354;2023-07-24T06:41:51;18.20;99.90
41922;DHT22;27609;51.002;5.354;2023-07-24T06:44:16;18.30;99.90
41922;DHT22;27609;51.002;5.354;2023-07-24T06:46:42;18.30;99.90
41922;DHT22;27609;51.002;5.354;2023-07-24T06:49:08;18.30;99.90
41922;DHT22;27609;51.002;5.354;2023-07-24T06:51:33;18.30;99.90
41922;DHT22;27609;51.002;5.354;2023-07-24T06:53:59;18.50;99.90
41922;DHT22;27609;51.002;5.354;2023-07-24T06:56:25;18.60;99.90
41922;DHT22;27609;51.002;5.354;2023-07-24T06:58:50;18.40;99.90
41922;DHT22;27609;51.002;5.354;2023-07-24T07:01:16;18.40;99.90
41922;DHT22;27609;51.002;5.354;2023-07-24T07:03:42;18.40;99.90
41922;DHT22;27609;51.002;5.354;2023-07-24T07:06:07;18.70;99.90
41922;DHT22;27609;51.002;5.354;2023-07-24T07:08:35;18.90;99.90
41922;DHT22;27609;51.002;5.354;2023-07-24T07:11:01;18.90;99.90
41922;DHT22;27609;51.002;5.354;2023-07-24T07:13:27;18.70;99.90
41922;DHT22;27609;51.002;5.354;2023-07-24T07:15:53;18.70;99.90
41922;DHT22;27609;51.002;5.354;2023-07-24T07:18:18;18.80;99.90
41922;DHT22;27609;51.002;5.354;2023-07-24T07:20:52;19.10;99.90
41922;DHT22;27609;51.002;5.354;2023-07-24T07:23:19;19.20;99.90
41922;DHT22;27609;51.002;5.354;2023-07-24T07:25:45;19.00;99.90
41922;DHT22;27609;51.002;5.354;2023-07-24T07:28:14;19.30;99.90
41922;DHT22;27609;51.002;5.354;2023-07-24T07:30:41;19.40;99.90
41922;DHT22;27609;51.002;5.354;2023-07-24T07:33:07;20.10;99.90
41922;DHT22;27609;51.002;5.354;2023-07-24T07:35:33;20.70;99.90
41922;DHT22;27609;51.002;5.354;2023-07-24T07:37:59;21.50;99.90
41922;DHT22;27609;51.002;5.354;2023-07-24T07:40:26;21.80;99.90
41922;DHT22;27609;51.002;5.354;2023-07-24T07:42:55;21.50;99.90
41922;DHT22;27609;51.002;5.354;2023-07-24T07:45:22;20.70;99.90
41922;DHT22;27609;51.002;5.354;2023-07-24T07:47:48;20.80;99.90
41922;DHT22;27609;51.002;5.354;2023-07-24T07:50:13;20.70;99.90
41922;DHT22;27609;51.002;5.354;2023-07-24T07:52:39;20.50;99.90
41922;DHT22;27609;51.002;5.354;2023-07-24T07:55:05;20.60;99.90
41922;DHT22;27609;51.002;5.354;2023-07-24T07:57:34;21.40;99.90
41922;DHT22;27609;51.002;5.354;2023-07-24T08:00:00;22.10;99.90
41922;DHT22;27609;51.002;5.354;2023-07-24T08:02:26;21.30;99.90
41922;DHT22;27609;51.002;5.354;2023-07-24T08:04:51;20.90;99.90
41922;DHT22;27609;51.002;5.354;2023-07-24T08:07:17;20.80;99.90
41922;DHT22;27609;51.002;5.354;2023-07-24T08:09:42;20.70;99.90
41922;DHT22;27609;51.002;5.354;2023-07-24T08:12:08;20.80;99.90
41922;DHT22;27609;51.002;5.354;2023-07-24T08:14:34;20.90;99.90
41922;DHT22;27609;51.002;5.354;2023-07-24T08:16:59;21.00;99.90
41922;DHT22;27609;51.002;5.354;2023-07-24T08:19:28;21.70;99.90
41922;DHT22;27609;51.002;5.354;2023-07-24T08:21:54;22.20;99.90
41922;DHT22;27609;51.002;5.354;2023-07-24T08:24:20;21.80;99.90
41922;DHT22;27609;51.002;5.354;2023-07-24T08:26:45;21.00;99.90
41922;DHT22;27609;51.002;5.354;2023-07-24T08:29:11;20.70;99.90
41922;DHT22;27609;51.002;5.354;2023-07-24T08:31:36;20.70;99.90
41922;DHT22;27609;51.002;5.354;2023-07-24T08:34:02;21.90;99.90
41922;DHT22;27609;51.002;5.354;2023-07-24T08:36:28;22.50;99.90
41922;DHT22;27609;51.002;5.354;2023-07-24T08:38:54;23.00;99.90
41922;DHT22;27609;51.002;5.354;2023-07-24T08:41:20;24.00;99.90
41922;DHT22;27609;51.002;5.354;2023-07-24T08:43:46;25.10;99.90
41922;DHT22;27609;51.002;5.354;2023-07-24T08:46:12;23.40;99.90
41922;DHT22;27609;51.002;5.354;2023-07-24T08:48:42;22.50;99.90
41922;DHT22;27609;51.002;5.354;2023-07-24T08:51:09;22.30;99.90
41922;DHT22;27609;51.002;5.354;2023-07-24T08:53:40;21.90;99.90
41922;DHT22;27609;51.002;5.354;2023-07-24T08:56:07;22.00;99.90
41922;DHT22;27609;51.002;5.354;2023-07-24T08:58:33;22.50;99.90
41922;DHT22;27609;51.002;5.354;2023-07-24T09:01:01;22.50;99.90
41922;DHT22;27609;51.002;5.354;2023-07-24T09:03:28;22.50;99.90
41922;DHT22;27609;51.002;5.354;2023-07-24T09:05:53;22.30;99.90
41922;DHT22;27609;51.002;5.354;2023-07-24T09:08:37;22.30;99.90
41922;DHT22;27609;51.002;5.354;2023-07-24T09:11:03;21.80;99.90
41922;DHT22;27609;51.002;5.354;2023-07-24T09:13:31;21.00;99.90
41922;DHT22;27609;51.002;5.354;2023-07-24T09:15:56;20.80;99.90
41922;DHT22;27609;51.002;5.354;2023-07-24T09:18:22;21.20;99.90
41922;DHT22;27609;51.002;5.354;2023-07-24T09:20:48;21.20;99.90
41922;DHT22;27609;51.002;5.354;2023-07-24T09:23:15;21.10;99.90
41922;DHT22;27609;51.002;5.354;2023-07-24T09:25:43;20.70;99.90
41922;DHT22;27609;51.002;5.354;2023-07-24T09:28:09;20.40;99.90
41922;DHT22;27609;51.002;5.354;2023-07-24T09:30:36;20.20;99.90
41922;DHT22;27609;51.002;5.354;2023-07-24T09:33:01;20.00;99.90
41922;DHT22;27609;51.002;5.354;2023-07-24T09:35:27;19.60;99.90
41922;DHT22;27609;51.002;5.354;2023-07-24T09:38:05;19.20;99.90
41922;DHT22;27609;51.002;5.354;2023-07-24T09:40:57;18.80;99.90
41922;DHT22;27609;51.002;5.354;2023-07-24T09:43:25;18.80;99.90
41922;DHT22;27609;51.002;5.354;2023-07-24T09:45:52;18.70;99.90
41922;DHT22;27609;51.002;5.354;2023-07-24T09:48:19;18.70;99.90
41922;DHT22;27609;51.002;5.354;2023-07-24T09:50:51;18.60;99.90
41922;DHT22;27609;51.002;5.354;2023-07-24T09:55:51;18.50;99.90
41922;DHT22;27609;51.002;5.354;2023-07-24T09:58:21;18.60;99.90
41922;DHT22;27609;51.002;5.354;2023-07-24T10:00:48;18.30;99.90
41922;DHT22;27609;51.002;5.354;2023-07-24T10:03:14;18.30;99.90
41922;DHT22;27609;51.002;5.354;2023-07-24T10:05:44;18.00;99.90
41922;DHT22;27609;51.002;5.354;2023-07-24T10:08:15;17.80;99.90
41922;DHT22;27609;51.002;5.354;2023-07-24T10:10:41;17.60;99.90
41922;DHT22;27609;51.002;5.354;2023-07-24T10:13:09;17.40;99.90
41922;DHT22;27609;51.002;5.354;2023-07-24T10:15:39;17.40;99.90
41922;DHT22;27609;51.002;5.354;2023-07-24T10:18:07;17.40;99.90
41922;DHT22;27609;51.002;5.354;2023-07-24T10:20:40;17.50;99.90
41922;DHT22;27609;51.002;5.354;2023-07-24T10:23:08;17.70;99.90
41922;DHT22;27609;51.002;5.354;2023-07-24T10:25:36;17.90;99.90
41922;DHT22;27609;51.002;5.354;2023-07-24T10:28:03;18.20;99.90
41922;DHT22;27609;51.002;5.354;2023-07-24T10:30:35;18.10;99.90
41922;DHT22;27609;51.002;5.354;2023-07-24T10:33:18;18.30;99.90
41922;DHT22;27609;51.002;5.354;2023-07-24T10:36:03;18.20;99.90
41922;DHT22;27609;51.002;5.354;2023-07-24T10:38:35;17.80;99.90
41922;DHT22;27609;51.002;5.354;2023-07-24T10:41:03;17.60;99.90
41922;DHT22;27609;51.002;5.354;2023-07-24T10:43:29;17.60;99.90
41922;DHT22;27609;51.002;5.354;2023-07-24T10:45:55;17.90;99.90
41922;DHT22;27609;51.002;5.354;2023-07-24T10:48:21;18.10;99.90
41922;DHT22;27609;51.002;5.354;2023-07-24T10:50:49;18.30;99.90
41922;DHT22;27609;51.002;5.354;2023-07-24T10:53:20;18.30;99.90
41922;DHT22;27609;51.002;5.354;2023-07-24T10:55:47;18.40;99.90
41922;DHT22;27609;51.002;5.354;2023-07-24T10:58:13;18.80;99.90
41922;DHT22;27609;51.002;5.354;2023-07-24T11:00:40;19.10;99.90
41922;DHT22;27609;51.002;5.354;2023-07-24T11:03:10;19.30;99.90
41922;DHT22;27609;51.002;5.354;2023-07-24T11:05:42;19.00;99.90
41922;DHT22;27609;51.002;5.354;2023-07-24T11:08:18;18.90;99.90
41922;DHT22;27609;51.002;5.354;2023-07-24T11:10:45;19.30;99.90
41922;DHT22;27609;51.002;5.354;2023-07-24T11:13:17;19.50;99.90
41922;DHT22;27609;51.002;5.354;2023-07-24T11:15:44;19.70;99.90
41922;DHT22;27609;51.002;5.354;2023-07-24T11:18:10;19.90;99.90
41922;DHT22;27609;51.002;5.354;2023-07-24T11:20:48;20.10;99.90
41922;DHT22;27609;51.002;5.354;2023-07-24T11:23:14;20.00;99.90
41922;DHT22;27609;51.002;5.354;2023-07-24T11:25:41;20.60;99.90
41922;DHT22;27609;51.002;5.354;2023-07-24T11:28:08;21.70;99.90
41922;DHT22;27609;51.002;5.354;2023-07-24T11:30:34;22.60;99.90
41922;DHT22;27609;51.002;5.354;2023-07-24T11:33:03;22.70;99.90
41922;DHT22;27609;51.002;5.354;2023-07-24T11:35:29;23.30;99.90
41922;DHT22;27609;51.002;5.354;2023-07-24T11:37:54;24.10;99.90
41922;DHT22;27609;51.002;5.354;2023-07-24T11:40:20;24.80;99.90
41922;DHT22;27609;51.002;5.354;2023-07-24T11:42:48;24.80;99.90
41922;DHT22;27609;51.002;5.354;2023-07-24T11:45:14;25.20;99.90
41922;DHT22;27609;51.002;5.354;2023-07-24T11:47:48;25.40;99.90
41922;DHT22;27609;51.002;5.354;2023-07-24T11:50:14;26.40;99.90
41922;DHT22;27609;51.002;5.354;2023-07-24T11:52:42;26.90;99.90
41922;DHT22;27609;51.002;5.354;2023-07-24T11:55:10;26.50;99.90
41922;DHT22;27609;51.002;5.354;2023-07-24T11:57:36;26.60;99.90
41922;DHT22;27609;51.002;5.354;2023-07-24T12:00:03;26.10;99.90
41922;DHT22;27609;51.002;5.354;2023-07-24T12:02:29;26.80;99.90
41922;DHT22;27609;51.002;5.354;2023-07-24T12:04:58;28.60;99.90
41922;DHT22;27609;51.002;5.354;2023-07-24T12:07:35;29.40;99.90
41922;DHT22;27609;51.002;5.354;2023-07-24T12:10:05;29.80;99.90
41922;DHT22;27609;51.002;5.354;2023-07-24T12:12:42;29.00;99.90
41922;DHT22;27609;51.002;5.354;2023-07-24T12:15:08;28.40;99.90
41922;DHT22;27609;51.002;5.354;2023-07-24T12:17:34;28.00;99.90
41922;DHT22;27609;51.002;5.354;2023-07-24T12:20:00;27.60;99.90
41922;DHT22;27609;51.002;5.354;2023-07-24T12:22:26;27.30;99.90
41922;DHT22;27609;51.002;5.354;2023-07-24T12:24:52;26.60;99.90
41922;DHT22;27609;51.002;5.354;2023-07-24T12:27:17;26.20;99.90
41922;DHT22;27609;51.002;5.354;2023-07-24T12:29:43;25.90;99.90
41922;DHT22;27609;51.002;5.354;2023-07-24T12:32:09;26.70;99.90
41922;DHT22;27609;51.002;5.354;2023-07-24T12:34:34;27.20;99.90
41922;DHT22;27609;51.002;5.354;2023-07-24T12:37:00;25.90;99.90
41922;DHT22;27609;51.002;5.354;2023-07-24T12:39:25;25.00;99.90
41922;DHT22;27609;51.002;5.354;2023-07-24T12:41:51;24.80;99.90
41922;DHT22;27609;51.002;5.354;2023-07-24T12:44:17;24.50;99.90
41922;DHT22;27609;51.002;5.354;2023-07-24T12:46:42;24.40;99.90
41922;DHT22;27609;51.002;5.354;2023-07-24T12:49:08;23.70;99.90
41922;DHT22;27609;51.002;5.354;2023-07-24T12:51:34;23.40;99.90
41922;DHT22;27609;51.002;5.354;2023-07-24T12:53:59;23.00;99.90
41922;DHT22;27609;51.002;5.354;2023-07-24T12:56:25;22.70;99.90
41922;DHT22;27609;51.002;5.354;2023-07-24T12:58:51;22.30;99.90
41922;DHT22;27609;51.002;5.354;2023-07-24T13:01:16;21.50;99.90
41922;DHT22;27609;51.002;5.354;2023-07-24T13:03:42;21.30;99.90
41922;DHT22;27609;51.002;5.354;2023-07-24T13:06:07;21.20;99.90
41922;DHT22;27609;51.002;5.354;2023-07-24T13:08:33;20.80;99.90
41922;DHT22;27609;51.002;5.354;2023-07-24T13:10:59;20.90;99.90
41922;DHT22;27609;51.002;5.354;2023-07-24T13:13:24;21.20;99.90
41922;DHT22;27609;51.002;5.354;2023-07-24T13:15:50;21.50;99.90
41922;DHT22;27609;51.002;5.354;2023-07-24T13:18:17;22.20;99.90
41922;DHT22;27609;51.002;5.354;2023-07-24T13:20:45;24.10;99.90
41922;DHT22;27609;51.002;5.354;2023-07-24T13:23:11;25.70;99.90
41922;DHT22;27609;51.002;5.354;2023-07-24T13:25:37;24.70;99.90
41922;DHT22;27609;51.002;5.354;2023-07-24T13:28:03;25.10;99.90
41922;DHT22;27609;51.002;5.354;2023-07-24T13:30:28;23.70;99.90
41922;DHT22;27609;51.002;5.354;2023-07-24T13:32:54;23.70;99.90
41922;DHT22;27609;51.002;5.354;2023-07-24T13:35:20;24.00;99.90
41922;DHT22;27609;51.002;5.354;2023-07-24T13:37:45;24.70;99.90
41922;DHT22;27609;51.002;5.354;2023-07-24T13:40:11;23.90;99.90
41922;DHT22;27609;51.002;5.354;2023-07-24T13:42:37;23.30;99.90
41922;DHT22;27609;51.002;5.354;2023-07-24T13:45:03;23.80;99.90
41922;DHT22;27609;51.002;5.354;2023-07-24T13:47:29;23.10;99.90
41922;DHT22;27609;51.002;5.354;2023-07-24T13:49:54;24.20;99.90
41922;DHT22;27609;51.002;5.354;2023-07-24T13:52:20;26.20;99.90
41922;DHT22;27609;51.002;5.354;2023-07-24T13:54:46;27.60;99.90
41922;DHT22;27609;51.002;5.354;2023-07-24T13:57:13;27.70;99.90
41922;DHT22;27609;51.002;5.354;2023-07-24T13:59:38;26.00;99.90
41922;DHT22;27609;51.002;5.354;2023-07-24T14:02:05;26.50;99.90
41922;DHT22;27609;51.002;5.354;2023-07-24T14:04:31;26.80;99.90
41922;DHT22;27609;51.002;5.354;2023-07-24T14:06:57;25.70;99.90
41922;DHT22;27609;51.002;5.354;2023-07-24T14:09:22;24.50;99.90
41922;DHT22;27609;51.002;5.354;2023-07-24T14:11:48;24.50;99.90
41922;DHT22;27609;51.002;5.354;2023-07-24T14:14:17;24.70;99.90
41922;DHT22;27609;51.002;5.354;2023-07-24T14:16:43;23.40;99.90
41922;DHT22;27609;51.002;5.354;2023-07-24T14:19:09;22.70;99.90
41922;DHT22;27609;51.002;5.354;2023-07-24T14:21:34;22.40;99.90
41922;DHT22;27609;51.002;5.354;2023-07-24T14:24:00;22.20;99.90
41922;DHT22;27609;51.002;5.354;2023-07-24T14:26:26;22.00;99.90
41922;DHT22;27609;51.002;5.354;2023-07-24T14:28:52;22.10;99.90
41922;DHT22;27609;51.002;5.354;2023-07-24T14:31:18;22.40;99.90
41922;DHT22;27609;51.002;5.354;2023-07-24T14:33:43;22.80;99.90
41922;DHT22;27609;51.002;5.354;2023-07-24T14:36:09;22.90;99.90
41922;DHT22;27609;51.002;5.354;2023-07-24T14:38:34;22.70;99.90
41922;DHT22;27609;51.002;5.354;2023-07-24T14:41:00;22.50;99.90
41922;DHT22;27609;51.002;5.354;2023-07-24T14:43:26;22.40;99.90
41922;DHT22;27609;51.002;5.354;2023-07-24T14:45:51;22.10;99.90
41922;DHT22;27609;51.002;5.354;2023-07-24T14:48:17;21.70;99.90
41922;DHT22;27609;51.002;5.354;2023-07-24T14:50:43;21.30;99.90
41922;DHT22;27609;51.002;5.354;2023-07-24T14:53:08;21.00;99.90
41922;DHT22;27609;51.002;5.354;2023-07-24T14:55:34;20.80;99.90
41922;DHT22;27609;51.002;5.354;2023-07-24T14:57:59;21.00;99.90
41922;DHT22;27609;51.002;5.354;2023-07-24T15:00:25;21.40;99.90
41922;DHT22;27609;51.002;5.354;2023-07-24T15:02:51;21.60;99.90
41922;DHT22;27609;51.002;5.354;2023-07-24T15:05:16;21.60;99.90
41922;DHT22;27609;51.002;5.354;2023-07-24T15:07:42;21.70;99.90
41922;DHT22;27609;51.002;5.354;2023-07-24T15:10:08;21.80;99.90
41922;DHT22;27609;51.002;5.354;2023-07-24T15:12:33;21.70;99.90
41922;DHT22;27609;51.002;5.354;2023-07-24T15:14:59;21.90;99.90
41922;DHT22;27609;51.002;5.354;2023-07-24T15:17:25;21.70;99.90
41922;DHT22;27609;51.002;5.354;2023-07-24T15:19:50;21.70;99.90
41922;DHT22;27609;51.002;5.354;2023-07-24T15:22:16;21.80;99.90
41922;DHT22;27609;51.002;5.354;2023-07-24T15:24:41;21.90;99.90
41922;DHT22;27609;51.002;5.354;2023-07-24T15:27:07;21.70;99.90
41922;DHT22;27609;51.002;5.354;2023-07-24T15:29:36;21.70;99.90
41922;DHT22;27609;51.002;5.354;2023-07-24T15:32:02;21.60;99.90
41922;DHT22;27609;51.002;5.354;2023-07-24T15:34:28;21.00;99.90